Patcona II — WDC2170 — position and weather

sailwx.info

Track history (hours):
 
Tides and Currents Weather Stations Pressure Air Temp Water Temp Dewpoint Dewpoint Depression Visibility Wind Speed Wind Dir Waves Ship Positions

Patcona II

Owner: Connolly-Pacific Co, long beach, CA. More information available from US FCC via Universal Licensing System and Coast Guard Vessel Documentation Center.

Last reported at 2016-Jun-29 04:33 UTC. Time now 2016-Jun-29 05:39 UTC.
Position N 33°46' W 118°13'.

; draft 9 m.

Type: Towing. MMSI: 366988960.

Date/timePositionNaut miles runAvg speedWind from/ knotsBaromVisibWave heightAir tempDewpointWater temp
2016-Jun-29 04:33N 33°46' W 118°13'0 0.0
2016-Jun-29 03:33N 33°46' W 118°13'0 0.0
2016-Jun-29 02:33N 33°46' W 118°13'12041205.9
2016-Jun-29 01:33N 29°45' W 095°06'1204722357.5
2016-Jun-29 01:33N 33°46' W 118°13'0 0.0
2016-Jun-29 00:33N 33°46' W 118°13'1204866828.9
2016-Jun-29 00:33N 29°45' W 095°06'12041205.3
2016-Jun-28 23:33N 33°46' W 118°13'1204270945.8
2016-Jun-28 23:33N 29°46' W 095°05'12041209.9
2016-Jun-28 22:33N 33°46' W 118°13'12036920.3
2016-Jun-28 22:23N 29°46' W 095°06'12031456.2
2016-Jun-28 21:33N 33°46' W 118°13'0 0.0
2016-Jun-28 20:33N 33°46' W 118°13'12037280.9
2016-Jun-28 20:23N 29°46' W 095°06'12031441.6
2016-Jun-28 19:33N 33°46' W 118°13'0 0.0
2016-Jun-28 18:33N 33°46' W 118°13'12035894.1
2016-Jun-28 18:21N 29°46' W 095°06'12031512.1
2016-Jun-28 17:33N 33°46' W 118°13'0 0.0
2016-Jun-28 16:33N 33°46' W 118°13'0 0.0
2016-Jun-28 15:33N 33°46' W 118°13'0 0.0
2016-Jun-28 14:33N 33°46' W 118°13'0 0.0
2016-Jun-28 13:33N 33°46' W 118°13'0 0.0
2016-Jun-28 12:33N 33°46' W 118°13'0 0.0
2016-Jun-28 11:33N 33°46' W 118°13'0 0.0
2016-Jun-28 10:33N 33°46' W 118°13'0 0.0
2016-Jun-28 09:34N 33°46' W 118°13'0 0.0
2016-Jun-28 08:33N 33°46' W 118°13'0 0.0
2016-Jun-28 07:33N 33°46' W 118°13'0 0.0
2016-Jun-28 06:33N 33°46' W 118°13'0 0.0
2016-Jun-28 04:33N 33°46' W 118°13'0 0.0
2016-Jun-28 03:34N 33°46' W 118°13'0 0.0
2016-Jun-28 02:33N 33°46' W 118°13'0 0.0
2016-Jun-28 01:33N 33°46' W 118°13'12034048.6
2016-Jun-28 01:16N 29°47' W 095°06'2 2.9
2016-Jun-28 00:33N 29°45' W 095°06'1204866653.1
2016-Jun-28 00:33N 33°46' W 118°13'0 0.0
2016-Jun-27 23:33N 33°46' W 118°13'120233283.2
2016-Jun-27 23:31N 29°44' W 095°09'12021246.9
2016-Jun-27 22:33N 33°46' W 118°13'120233029.1
2016-Jun-27 22:31N 29°44' W 095°09'12021247.3
2016-Jun-27 21:33N 33°46' W 118°13'120213912.6
2016-Jun-27 21:28N 29°44' W 095°09'12021315.9
2016-Jun-27 20:33N 33°46' W 118°13'0 0.0
2016-Jun-27 19:33N 33°46' W 118°13'0 0.0
2016-Jun-27 18:33N 33°46' W 118°13'0 0.0
2016-Jun-27 17:33N 33°46' W 118°13'0 0.0
2016-Jun-27 16:33N 33°46' W 118°13'0 0.0
2016-Jun-27 15:33N 33°46' W 118°13'12028812.3
2016-Jun-27 15:25N 29°44' W 095°09'12021391.7
2016-Jun-27 14:33N 33°46' W 118°13'0 0.0
2016-Jun-27 13:33N 33°46' W 118°13'12026803.2
2016-Jun-27 13:23N 29°44' W 095°09'12021464.2
2016-Jun-27 12:33N 33°46' W 118°13'0 0.0
2016-Jun-27 11:33N 33°46' W 118°13'0 0.0
2016-Jun-27 10:33N 33°46' W 118°13'0 0.0
2016-Jun-27 09:33N 33°46' W 118°13'0 0.0
2016-Jun-27 08:33N 33°46' W 118°13'0 0.0
2016-Jun-27 07:34N 33°46' W 118°13'0 0.0
2016-Jun-27 06:33N 33°46' W 118°13'0 0.0
2016-Jun-27 05:33N 33°46' W 118°13'119725964.7
2016-Jun-27 05:31N 29°43' W 095°15'11971255.1
2016-Jun-27 04:33N 33°46' W 118°13'0 0.0
2016-Jun-27 03:33N 33°46' W 118°13'0 0.0
2016-Jun-27 02:33N 33°46' W 118°13'0 0.0
2016-Jun-27 01:33N 33°46' W 118°13'119711492.5
2016-Jun-27 01:27N 29°43' W 095°15'11971336.3
2016-Jun-27 00:33N 33°46' W 118°13'12008401.6
2016-Jun-27 00:25N 29°45' W 095°11'12001399.4
2016-Jun-26 23:33N 33°46' W 118°13'120441282.8
2016-Jun-26 23:32N 29°45' W 095°06'12041240.6
2016-Jun-26 22:33N 33°46' W 118°13'120316921.8
2016-Jun-26 22:29N 29°47' W 095°06'12031295.1
2016-Jun-26 21:33N 33°46' W 118°13'1203309427.6
2016-Jun-26 21:33N 29°47' W 095°06'12031208.0
2016-Jun-26 20:33N 33°46' W 118°13'12033018.8
2016-Jun-26 20:09N 29°47' W 095°06'12032001.8
2016-Jun-26 19:33N 33°46' W 118°13'1203173279.5
2016-Jun-26 19:33N 29°47' W 095°06'12031211.4
2016-Jun-26 18:33N 33°46' W 118°13'12039541.8
2016-Jun-26 18:26N 29°47' W 095°06'12031364.0
2016-Jun-26 17:33N 33°46' W 118°13'120396266.4
2016-Jun-26 17:32N 29°47' W 095°06'12031228.9
2016-Jun-26 16:33N 33°46' W 118°13'120311613.9
2016-Jun-26 16:27N 29°47' W 095°06'12031342.4
2016-Jun-26 15:33N 33°46' W 118°13'120380222.9
2016-Jun-26 15:32N 29°47' W 095°06'0 0.0
2016-Jun-26 14:33N 29°47' W 095°06'12031083005.6
2016-Jun-26 14:33N 33°46' W 118°13'0 0.0
2016-Jun-26 13:33N 33°46' W 118°13'120341257.4
2016-Jun-26 13:31N 29°47' W 095°06'12031243.0
2016-Jun-26 12:33N 33°46' W 118°13'120314635.2
2016-Jun-26 12:28N 29°47' W 095°06'12031311.1
2016-Jun-26 11:33N 33°46' W 118°13'1203722003.7
2016-Jun-26 11:33N 29°47' W 095°06'12031205.0
2016-Jun-26 10:33N 33°46' W 118°13'1203127412.4
2016-Jun-26 10:33N 29°47' W 095°06'12031215.2
2016-Jun-26 09:33N 33°46' W 118°13'1203866404.5
2016-Jun-26 09:33N 29°47' W 095°06'12031205.0
2016-Jun-26 08:33N 33°46' W 118°13'120341257.4
2016-Jun-26 08:32N 29°47' W 095°06'12031239.5
2016-Jun-26 07:33N 33°46' W 118°13'120477394.5
2016-Jun-26 07:32N 29°45' W 095°06'12041222.9
2016-Jun-26 06:33N 33°46' W 118°13'120119129.2
2016-Jun-26 06:30N 29°44' W 095°10'12011281.3
2016-Jun-26 05:33N 33°46' W 118°13'0 0.0
2016-Jun-26 04:33N 33°46' W 118°13'0 0.0
2016-Jun-26 03:33N 33°46' W 118°13'12015221.3
2016-Jun-26 03:20N 29°44' W 095°10'12011559.6
2016-Jun-26 02:33N 33°46' W 118°13'12015215.0
2016-Jun-26 02:20N 29°44' W 095°10'12011554.6
2016-Jun-26 01:33N 33°46' W 118°13'0 0.0
2016-Jun-26 00:33N 33°46' W 118°13'0 0.0
2016-Jun-25 23:33N 33°46' W 118°13'0 0.0
2016-Jun-25 22:33N 33°46' W 118°13'0 0.0
2016-Jun-25 21:33N 33°46' W 118°13'0 0.0
2016-Jun-25 20:34N 33°46' W 118°13'0 0.0
2016-Jun-25 19:33N 33°46' W 118°13'0 0.0
2016-Jun-25 18:33N 33°46' W 118°13'0 0.0
2016-Jun-25 17:33N 33°46' W 118°13'119754536.9
2016-Jun-25 17:32N 29°43' W 095°15'11971223.6
2016-Jun-25 16:33N 33°46' W 118°13'1201216261.7
2016-Jun-25 16:33N 29°44' W 095°09'12011208.2
2016-Jun-25 15:33N 33°46' W 118°13'0 0.0
2016-Jun-25 14:33N 33°46' W 118°13'1212207823.3
2016-Jun-25 14:33N 29°39' W 094°58'12121219.1
2016-Jun-25 13:33N 33°46' W 118°13'1218151146.0
2016-Jun-25 13:33N 29°33' W 094°54'12181224.4
2016-Jun-25 12:33N 33°46' W 118°13'0 0.0
2016-Jun-25 11:33N 33°46' W 118°13'1224400481.6
2016-Jun-25 11:33N 29°22' W 094°51'12241227.1
2016-Jun-25 10:33N 33°46' W 118°13'0 0.0
2016-Jun-25 09:33N 33°46' W 118°13'0 0.0
2016-Jun-25 08:33N 33°46' W 118°13'0 0.0
2016-Jun-25 07:33N 33°46' W 118°13'0 0.0
2016-Jun-25 06:33N 33°46' W 118°13'0 0.0
2016-Jun-25 05:33N 33°46' W 118°13'0 0.0
2016-Jun-25 04:33N 33°46' W 118°13'0 0.0
2016-Jun-25 03:33N 33°46' W 118°13'0 0.0
2016-Jun-25 02:33N 33°46' W 118°13'0 0.0
2016-Jun-25 01:33N 33°46' W 118°13'0 0.0
2016-Jun-25 00:33N 33°46' W 118°13'0 0.0
2016-Jun-24 23:33N 33°46' W 118°13'0 0.0
2016-Jun-24 22:33N 33°46' W 118°13'0 0.0
2016-Jun-24 21:33N 33°46' W 118°13'0 0.0
2016-Jun-24 20:33N 33°46' W 118°13'0 0.0
2016-Jun-24 19:33N 33°46' W 118°13'0 0.0
2016-Jun-24 18:33N 33°46' W 118°13'0 0.0
2016-Jun-24 17:33N 33°46' W 118°13'0 0.0
2016-Jun-24 16:33N 33°46' W 118°13'0 0.0
2016-Jun-24 15:33N 33°46' W 118°13'0 0.0
2016-Jun-24 14:33N 33°46' W 118°13'0 0.0
2016-Jun-24 13:33N 33°46' W 118°13'0 0.0
2016-Jun-24 12:33N 33°46' W 118°13'0 0.0
2016-Jun-24 11:33N 33°46' W 118°13'0 0.0
2016-Jun-24 10:34N 33°46' W 118°13'0 0.0
2016-Jun-24 09:33N 33°46' W 118°13'0 0.0
2016-Jun-24 08:33N 33°46' W 118°13'0 0.0
2016-Jun-24 07:33N 33°46' W 118°13'0 0.0
2016-Jun-24 04:33N 33°46' W 118°13'0 0.0
2016-Jun-24 03:33N 33°46' W 118°13'0 0.0
2016-Jun-24 02:33N 33°46' W 118°13'0 0.0
2016-Jun-24 01:33N 33°46' W 118°13'0 0.0
2016-Jun-24 00:33N 33°46' W 118°13'0 0.0
2016-Jun-23 23:33N 33°46' W 118°13'0 0.0
2016-Jun-23 22:33N 33°46' W 118°13'0 0.0
2016-Jun-23 21:33N 33°46' W 118°13'0 0.0
2016-Jun-23 20:33N 33°46' W 118°13'0 0.0
2016-Jun-23 19:33N 33°46' W 118°13'0 0.0
2016-Jun-23 18:33N 33°46' W 118°13'0 0.0
2016-Jun-23 17:33N 33°46' W 118°13'0 0.0
2016-Jun-23 16:33N 33°46' W 118°13'0 0.0
2016-Jun-23 15:33N 33°46' W 118°13'0 0.0
2016-Jun-23 14:33N 33°46' W 118°13'0 0.0
2016-Jun-23 13:33N 33°46' W 118°13'0 0.0
2016-Jun-23 12:33N 33°46' W 118°13'0 0.0
2016-Jun-23 11:33N 33°46' W 118°13'0 0.0
2016-Jun-23 10:33N 33°46' W 118°13'0 0.0
2016-Jun-23 09:33N 33°46' W 118°13'0 0.0
2016-Jun-23 08:33N 33°46' W 118°13'0 0.0
2016-Jun-23 07:33N 33°46' W 118°13'0 0.0
2016-Jun-23 05:33N 33°46' W 118°13'0 0.0
2016-Jun-23 04:33N 33°46' W 118°13'0 0.0
2016-Jun-23 03:33N 33°46' W 118°13'0 0.0
2016-Jun-23 02:33N 33°46' W 118°13'0 0.0
2016-Jun-23 01:33N 33°46' W 118°13'0 0.0
2016-Jun-23 00:33N 33°46' W 118°13'0 0.0
2016-Jun-22 23:33N 33°46' W 118°13'122658860.8
2016-Jun-22 23:32N 29°18' W 094°49'12261252.4
2016-Jun-22 22:33N 33°46' W 118°13'0 0.0
2016-Jun-22 21:33N 33°46' W 118°13'0 0.0
2016-Jun-22 20:33N 33°46' W 118°13'0 0.0
2016-Jun-22 19:33N 33°46' W 118°13'0 0.0
2016-Jun-22 18:33N 33°46' W 118°13'0 0.0
2016-Jun-22 17:33N 33°46' W 118°13'0 0.0
2016-Jun-22 16:33N 33°46' W 118°13'0 0.0
2016-Jun-22 15:33N 33°46' W 118°13'0 0.0
2016-Jun-22 14:33N 33°46' W 118°13'0 0.0
2016-Jun-22 13:33N 33°46' W 118°13'0 0.0
2016-Jun-22 12:33N 33°46' W 118°13'0 0.0
2016-Jun-22 11:33N 33°46' W 118°13'0 0.0
2016-Jun-22 10:33N 33°46' W 118°13'0 0.0
2016-Jun-22 09:33N 33°46' W 118°13'0 0.0
2016-Jun-22 08:33N 33°46' W 118°13'0 0.0
2016-Jun-22 07:33N 33°46' W 118°13'0 0.0
2016-Jun-22 06:33N 33°46' W 118°13'0 0.0
2016-Jun-22 05:33N 33°46' W 118°13'0 0.0
2016-Jun-22 04:33N 33°46' W 118°13'0 0.0
2016-Jun-22 03:33N 33°46' W 118°13'0 0.0
2016-Jun-22 02:33N 33°46' W 118°13'0 0.0
2016-Jun-22 01:33N 33°46' W 118°13'0 0.0
2016-Jun-22 00:33N 33°46' W 118°13'0 0.0
2016-Jun-21 23:33N 33°46' W 118°13'0 0.0
2016-Jun-21 22:33N 33°46' W 118°13'0 0.0
2016-Jun-21 21:33N 33°46' W 118°13'0 0.0
2016-Jun-21 20:33N 33°46' W 118°13'0 0.0
2016-Jun-21 19:33N 33°46' W 118°13'0 0.0
2016-Jun-21 18:33N 33°46' W 118°13'0 0.0
2016-Jun-21 17:33N 33°46' W 118°13'0 0.0
2016-Jun-21 16:33N 33°46' W 118°13'0 0.0
2016-Jun-21 15:33N 33°46' W 118°13'0 0.0
2016-Jun-21 14:33N 33°46' W 118°13'0 0.0
2016-Jun-21 13:33N 33°46' W 118°13'0 0.0
2016-Jun-21 12:33N 33°46' W 118°13'0 0.0
2016-Jun-21 11:33N 33°46' W 118°13'0 0.0
2016-Jun-21 10:33N 33°46' W 118°13'0 0.0
2016-Jun-21 09:33N 33°46' W 118°13'0 0.0
2016-Jun-21 08:33N 33°46' W 118°13'0 0.0
2016-Jun-21 07:33N 33°46' W 118°13'0 0.0
2016-Jun-21 06:33N 33°46' W 118°13'12111209.7
2016-Jun-21 05:33N 29°40' W 094°59'1 1.0
2016-Jun-21 04:34N 29°41' W 094°60'1210871548.9
2016-Jun-21 04:33N 33°46' W 118°13'0 0.0
2016-Jun-21 03:33N 33°46' W 118°13'121041502.4
2016-Jun-21 03:32N 29°41' W 094°60'12101247.2
2016-Jun-21 02:33N 33°46' W 118°13'12109814.8
2016-Jun-21 02:26N 29°41' W 094°60'12101380.3
2016-Jun-21 01:33N 33°46' W 118°13'121038225.9
2016-Jun-21 01:32N 29°41' W 094°60'12101250.1
2016-Jun-21 00:33N 33°46' W 118°13'121018622.9
2016-Jun-21 00:30N 29°41' W 094°60'12101294.6
2016-Jun-20 23:33N 33°46' W 118°13'121023555.4
2016-Jun-20 23:30N 29°41' W 094°60'12101276.4
2016-Jun-20 22:33N 33°46' W 118°13'121013408.4
2016-Jun-20 22:28N 29°41' W 094°60'12101330.2
2016-Jun-20 21:33N 33°46' W 118°13'1210181573.0
2016-Jun-20 21:33N 29°41' W 094°60'0 0.0
2016-Jun-20 20:33N 29°41' W 094°60'12101089437.8
2016-Jun-20 20:33N 33°46' W 118°13'0 0.0
2016-Jun-20 19:33N 33°46' W 118°13'1210871550.2
2016-Jun-20 19:33N 29°41' W 094°60'12101212.2
2016-Jun-20 18:33N 33°46' W 118°13'0 0.0
2016-Jun-20 17:33N 33°46' W 118°13'0 0.0
2016-Jun-20 16:33N 33°46' W 118°13'0 0.0
2016-Jun-20 15:33N 33°46' W 118°13'0 0.0
2016-Jun-20 14:34N 33°46' W 118°13'0 0.0
2016-Jun-20 13:33N 33°46' W 118°13'0 0.0
2016-Jun-20 12:33N 33°46' W 118°13'0 0.0
2016-Jun-20 11:33N 33°46' W 118°13'0 0.0
2016-Jun-20 10:33N 33°46' W 118°13'0 0.0
2016-Jun-20 09:33N 33°46' W 118°13'0 0.0
2016-Jun-20 08:33N 33°46' W 118°13'0 0.0
2016-Jun-20 07:33N 33°46' W 118°13'0 0.0
2016-Jun-20 06:33N 33°46' W 118°13'0 0.0
2016-Jun-20 05:28N 33°46' W 118°13'0 0.0
2016-Jun-20 04:33N 33°46' W 118°13'0 0.0
2016-Jun-20 03:33N 33°46' W 118°13'0 0.0
2016-Jun-20 02:33N 33°46' W 118°13'0 0.0
2016-Jun-20 01:33N 33°46' W 118°13'0 0.0
2016-Jun-20 00:33N 33°46' W 118°13'0 0.0
2016-Jun-19 23:33N 33°46' W 118°13'0 0.0
2016-Jun-19 22:29N 33°46' W 118°13'0 0.0
2016-Jun-19 21:33N 33°46' W 118°13'0 0.0
2016-Jun-19 18:30N 33°46' W 118°13'0 0.0
2016-Jun-19 17:32N 33°46' W 118°13'0 0.0
2016-Jun-19 16:30N 33°46' W 118°13'0 0.0
2016-Jun-19 15:30N 33°46' W 118°13'0 0.0
2016-Jun-19 14:33N 33°46' W 118°13'0 0.0
2016-Jun-19 13:33N 33°46' W 118°13'0 0.0
2016-Jun-19 12:33N 33°46' W 118°13'0 0.0
2016-Jun-19 11:33N 33°46' W 118°13'0 0.0
2016-Jun-19 10:33N 33°46' W 118°13'0 0.0
2016-Jun-19 09:13N 33°46' W 118°13'0 0.0
2016-Jun-19 08:33N 33°46' W 118°13'0 0.0
2016-Jun-19 07:33N 33°46' W 118°13'0 0.0
2016-Jun-19 06:33N 33°46' W 118°13'  
Track history (hours):
 
Tides and Currents Weather Stations Pressure Air Temp Water Temp Dewpoint Dewpoint Depression Visibility Wind Speed Wind Dir Waves Ship Positions

Patcona II

Owner: Connolly-Pacific Co, long beach, CA. More information available from US FCC via Universal Licensing System and Coast Guard Vessel Documentation Center.

Last reported at 2016-Jun-29 04:33 UTC. Time now 2016-Jun-29 05:39 UTC.
Position N 33°46' W 118°13'.

; draft 9 m.

Type: Towing. MMSI: 366988960.

Date/timePositionNaut miles runAvg speedWind from/ knotsBaromVisibWave heightAir tempDewpointWater temp
2016-Jun-29 04:33N 33°46' W 118°13'0 0.0
2016-Jun-29 03:33N 33°46' W 118°13'0 0.0
2016-Jun-29 02:33N 33°46' W 118°13'12041205.9
2016-Jun-29 01:33N 29°45' W 095°06'1204722357.5
2016-Jun-29 01:33N 33°46' W 118°13'0 0.0
2016-Jun-29 00:33N 33°46' W 118°13'1204866828.9
2016-Jun-29 00:33N 29°45' W 095°06'12041205.3
2016-Jun-28 23:33N 33°46' W 118°13'1204270945.8
2016-Jun-28 23:33N 29°46' W 095°05'12041209.9
2016-Jun-28 22:33N 33°46' W 118°13'12036920.3
2016-Jun-28 22:23N 29°46' W 095°06'12031456.2
2016-Jun-28 21:33N 33°46' W 118°13'0 0.0
2016-Jun-28 20:33N 33°46' W 118°13'12037280.9
2016-Jun-28 20:23N 29°46' W 095°06'12031441.6
2016-Jun-28 19:33N 33°46' W 118°13'0 0.0
2016-Jun-28 18:33N 33°46' W 118°13'12035894.1
2016-Jun-28 18:21N 29°46' W 095°06'12031512.1
2016-Jun-28 17:33N 33°46' W 118°13'0 0.0
2016-Jun-28 16:33N 33°46' W 118°13'0 0.0
2016-Jun-28 15:33N 33°46' W 118°13'0 0.0
2016-Jun-28 14:33N 33°46' W 118°13'0 0.0
2016-Jun-28 13:33N 33°46' W 118°13'0 0.0
2016-Jun-28 12:33N 33°46' W 118°13'0 0.0
2016-Jun-28 11:33N 33°46' W 118°13'0 0.0
2016-Jun-28 10:33N 33°46' W 118°13'0 0.0
2016-Jun-28 09:34N 33°46' W 118°13'0 0.0
2016-Jun-28 08:33N 33°46' W 118°13'0 0.0
2016-Jun-28 07:33N 33°46' W 118°13'0 0.0
2016-Jun-28 06:33N 33°46' W 118°13'0 0.0
2016-Jun-28 04:33N 33°46' W 118°13'0 0.0
2016-Jun-28 03:34N 33°46' W 118°13'0 0.0
2016-Jun-28 02:33N 33°46' W 118°13'0 0.0
2016-Jun-28 01:33N 33°46' W 118°13'12034048.6
2016-Jun-28 01:16N 29°47' W 095°06'2 2.9
2016-Jun-28 00:33N 29°45' W 095°06'1204866653.1
2016-Jun-28 00:33N 33°46' W 118°13'0 0.0
2016-Jun-27 23:33N 33°46' W 118°13'120233283.2
2016-Jun-27 23:31N 29°44' W 095°09'12021246.9
2016-Jun-27 22:33N 33°46' W 118°13'120233029.1
2016-Jun-27 22:31N 29°44' W 095°09'12021247.3
2016-Jun-27 21:33N 33°46' W 118°13'120213912.6
2016-Jun-27 21:28N 29°44' W 095°09'12021315.9
2016-Jun-27 20:33N 33°46' W 118°13'0 0.0
2016-Jun-27 19:33N 33°46' W 118°13'0 0.0
2016-Jun-27 18:33N 33°46' W 118°13'0 0.0
2016-Jun-27 17:33N 33°46' W 118°13'0 0.0
2016-Jun-27 16:33N 33°46' W 118°13'0 0.0
2016-Jun-27 15:33N 33°46' W 118°13'12028812.3
2016-Jun-27 15:25N 29°44' W 095°09'12021391.7
2016-Jun-27 14:33N 33°46' W 118°13'0 0.0
2016-Jun-27 13:33N 33°46' W 118°13'12026803.2
2016-Jun-27 13:23N 29°44' W 095°09'12021464.2
2016-Jun-27 12:33N 33°46' W 118°13'0 0.0
2016-Jun-27 11:33N 33°46' W 118°13'0 0.0
2016-Jun-27 10:33N 33°46' W 118°13'0 0.0
2016-Jun-27 09:33N 33°46' W 118°13'0 0.0
2016-Jun-27 08:33N 33°46' W 118°13'0 0.0
2016-Jun-27 07:34N 33°46' W 118°13'0 0.0
2016-Jun-27 06:33N 33°46' W 118°13'0 0.0
2016-Jun-27 05:33N 33°46' W 118°13'119725964.7
2016-Jun-27 05:31N 29°43' W 095°15'11971255.1
2016-Jun-27 04:33N 33°46' W 118°13'0 0.0
2016-Jun-27 03:33N 33°46' W 118°13'0 0.0
2016-Jun-27 02:33N 33°46' W 118°13'0 0.0
2016-Jun-27 01:33N 33°46' W 118°13'119711492.5
2016-Jun-27 01:27N 29°43' W 095°15'11971336.3
2016-Jun-27 00:33N 33°46' W 118°13'12008401.6
2016-Jun-27 00:25N 29°45' W 095°11'12001399.4
2016-Jun-26 23:33N 33°46' W 118°13'120441282.8
2016-Jun-26 23:32N 29°45' W 095°06'12041240.6
2016-Jun-26 22:33N 33°46' W 118°13'120316921.8
2016-Jun-26 22:29N 29°47' W 095°06'12031295.1
2016-Jun-26 21:33N 33°46' W 118°13'1203309427.6
2016-Jun-26 21:33N 29°47' W 095°06'12031208.0
2016-Jun-26 20:33N 33°46' W 118°13'12033018.8
2016-Jun-26 20:09N 29°47' W 095°06'12032001.8
2016-Jun-26 19:33N 33°46' W 118°13'1203173279.5
2016-Jun-26 19:33N 29°47' W 095°06'12031211.4
2016-Jun-26 18:33N 33°46' W 118°13'12039541.8
2016-Jun-26 18:26N 29°47' W 095°06'12031364.0
2016-Jun-26 17:33N 33°46' W 118°13'120396266.4
2016-Jun-26 17:32N 29°47' W 095°06'12031228.9
2016-Jun-26 16:33N 33°46' W 118°13'120311613.9
2016-Jun-26 16:27N 29°47' W 095°06'12031342.4
2016-Jun-26 15:33N 33°46' W 118°13'120380222.9
2016-Jun-26 15:32N 29°47' W 095°06'0 0.0
2016-Jun-26 14:33N 29°47' W 095°06'12031083005.6
2016-Jun-26 14:33N 33°46' W 118°13'0 0.0
2016-Jun-26 13:33N 33°46' W 118°13'120341257.4
2016-Jun-26 13:31N 29°47' W 095°06'12031243.0
2016-Jun-26 12:33N 33°46' W 118°13'120314635.2
2016-Jun-26 12:28N 29°47' W 095°06'12031311.1
2016-Jun-26 11:33N 33°46' W 118°13'1203722003.7
2016-Jun-26 11:33N 29°47' W 095°06'12031205.0
2016-Jun-26 10:33N 33°46' W 118°13'1203127412.4
2016-Jun-26 10:33N 29°47' W 095°06'12031215.2
2016-Jun-26 09:33N 33°46' W 118°13'1203866404.5
2016-Jun-26 09:33N 29°47' W 095°06'12031205.0
2016-Jun-26 08:33N 33°46' W 118°13'120341257.4
2016-Jun-26 08:32N 29°47' W 095°06'12031239.5
2016-Jun-26 07:33N 33°46' W 118°13'120477394.5
2016-Jun-26 07:32N 29°45' W 095°06'12041222.9
2016-Jun-26 06:33N 33°46' W 118°13'120119129.2
2016-Jun-26 06:30N 29°44' W 095°10'12011281.3
2016-Jun-26 05:33N 33°46' W 118°13'0 0.0
2016-Jun-26 04:33N 33°46' W 118°13'0 0.0
2016-Jun-26 03:33N 33°46' W 118°13'12015221.3
2016-Jun-26 03:20N 29°44' W 095°10'12011559.6
2016-Jun-26 02:33N 33°46' W 118°13'12015215.0
2016-Jun-26 02:20N 29°44' W 095°10'12011554.6
2016-Jun-26 01:33N 33°46' W 118°13'0 0.0
2016-Jun-26 00:33N 33°46' W 118°13'0 0.0
2016-Jun-25 23:33N 33°46' W 118°13'0 0.0
2016-Jun-25 22:33N 33°46' W 118°13'0 0.0
2016-Jun-25 21:33N 33°46' W 118°13'0 0.0
2016-Jun-25 20:34N 33°46' W 118°13'0 0.0
2016-Jun-25 19:33N 33°46' W 118°13'0 0.0
2016-Jun-25 18:33N 33°46' W 118°13'0 0.0
2016-Jun-25 17:33N 33°46' W 118°13'119754536.9
2016-Jun-25 17:32N 29°43' W 095°15'11971223.6
2016-Jun-25 16:33N 33°46' W 118°13'1201216261.7
2016-Jun-25 16:33N 29°44' W 095°09'12011208.2
2016-Jun-25 15:33N 33°46' W 118°13'0 0.0
2016-Jun-25 14:33N 33°46' W 118°13'1212207823.3
2016-Jun-25 14:33N 29°39' W 094°58'12121219.1
2016-Jun-25 13:33N 33°46' W 118°13'1218151146.0
2016-Jun-25 13:33N 29°33' W 094°54'12181224.4
2016-Jun-25 12:33N 33°46' W 118°13'0 0.0
2016-Jun-25 11:33N 33°46' W 118°13'1224400481.6
2016-Jun-25 11:33N 29°22' W 094°51'12241227.1
2016-Jun-25 10:33N 33°46' W 118°13'0 0.0
2016-Jun-25 09:33N 33°46' W 118°13'0 0.0
2016-Jun-25 08:33N 33°46' W 118°13'0 0.0
2016-Jun-25 07:33N 33°46' W 118°13'0 0.0
2016-Jun-25 06:33N 33°46' W 118°13'0 0.0
2016-Jun-25 05:33N 33°46' W 118°13'0 0.0
2016-Jun-25 04:33N 33°46' W 118°13'0 0.0
2016-Jun-25 03:33N 33°46' W 118°13'0 0.0
2016-Jun-25 02:33N 33°46' W 118°13'0 0.0
2016-Jun-25 01:33N 33°46' W 118°13'0 0.0
2016-Jun-25 00:33N 33°46' W 118°13'0 0.0
2016-Jun-24 23:33N 33°46' W 118°13'0 0.0
2016-Jun-24 22:33N 33°46' W 118°13'0 0.0
2016-Jun-24 21:33N 33°46' W 118°13'0 0.0
2016-Jun-24 20:33N 33°46' W 118°13'0 0.0
2016-Jun-24 19:33N 33°46' W 118°13'0 0.0
2016-Jun-24 18:33N 33°46' W 118°13'0 0.0
2016-Jun-24 17:33N 33°46' W 118°13'0 0.0
2016-Jun-24 16:33N 33°46' W 118°13'0 0.0
2016-Jun-24 15:33N 33°46' W 118°13'0 0.0
2016-Jun-24 14:33N 33°46' W 118°13'0 0.0
2016-Jun-24 13:33N 33°46' W 118°13'0 0.0
2016-Jun-24 12:33N 33°46' W 118°13'0 0.0
2016-Jun-24 11:33N 33°46' W 118°13'0 0.0
2016-Jun-24 10:34N 33°46' W 118°13'0 0.0
2016-Jun-24 09:33N 33°46' W 118°13'0 0.0
2016-Jun-24 08:33N 33°46' W 118°13'0 0.0
2016-Jun-24 07:33N 33°46' W 118°13'0 0.0
2016-Jun-24 04:33N 33°46' W 118°13'0 0.0
2016-Jun-24 03:33N 33°46' W 118°13'0 0.0
2016-Jun-24 02:33N 33°46' W 118°13'0 0.0
2016-Jun-24 01:33N 33°46' W 118°13'0 0.0
2016-Jun-24 00:33N 33°46' W 118°13'0 0.0
2016-Jun-23 23:33N 33°46' W 118°13'0 0.0
2016-Jun-23 22:33N 33°46' W 118°13'0 0.0
2016-Jun-23 21:33N 33°46' W 118°13'0 0.0
2016-Jun-23 20:33N 33°46' W 118°13'0 0.0
2016-Jun-23 19:33N 33°46' W 118°13'0 0.0
2016-Jun-23 18:33N 33°46' W 118°13'0 0.0
2016-Jun-23 17:33N 33°46' W 118°13'0 0.0
2016-Jun-23 16:33N 33°46' W 118°13'0 0.0
2016-Jun-23 15:33N 33°46' W 118°13'0 0.0
2016-Jun-23 14:33N 33°46' W 118°13'0 0.0
2016-Jun-23 13:33N 33°46' W 118°13'0 0.0
2016-Jun-23 12:33N 33°46' W 118°13'0 0.0
2016-Jun-23 11:33N 33°46' W 118°13'0 0.0
2016-Jun-23 10:33N 33°46' W 118°13'0 0.0
2016-Jun-23 09:33N 33°46' W 118°13'0 0.0
2016-Jun-23 08:33N 33°46' W 118°13'0 0.0
2016-Jun-23 07:33N 33°46' W 118°13'0 0.0
2016-Jun-23 05:33N 33°46' W 118°13'0 0.0
2016-Jun-23 04:33N 33°46' W 118°13'0 0.0
2016-Jun-23 03:33N 33°46' W 118°13'0 0.0
2016-Jun-23 02:33N 33°46' W 118°13'0 0.0
2016-Jun-23 01:33N 33°46' W 118°13'0 0.0
2016-Jun-23 00:33N 33°46' W 118°13'0 0.0
2016-Jun-22 23:33N 33°46' W 118°13'122658860.8
2016-Jun-22 23:32N 29°18' W 094°49'12261252.4
2016-Jun-22 22:33N 33°46' W 118°13'0 0.0
2016-Jun-22 21:33N 33°46' W 118°13'0 0.0
2016-Jun-22 20:33N 33°46' W 118°13'0 0.0
2016-Jun-22 19:33N 33°46' W 118°13'0 0.0
2016-Jun-22 18:33N 33°46' W 118°13'0 0.0
2016-Jun-22 17:33N 33°46' W 118°13'0 0.0
2016-Jun-22 16:33N 33°46' W 118°13'0 0.0
2016-Jun-22 15:33N 33°46' W 118°13'0 0.0
2016-Jun-22 14:33N 33°46' W 118°13'0 0.0
2016-Jun-22 13:33N 33°46' W 118°13'0 0.0
2016-Jun-22 12:33N 33°46' W 118°13'0 0.0
2016-Jun-22 11:33N 33°46' W 118°13'0 0.0
2016-Jun-22 10:33N 33°46' W 118°13'0 0.0
2016-Jun-22 09:33N 33°46' W 118°13'0 0.0
2016-Jun-22 08:33N 33°46' W 118°13'0 0.0
2016-Jun-22 07:33N 33°46' W 118°13'0 0.0
2016-Jun-22 06:33N 33°46' W 118°13'0 0.0
2016-Jun-22 05:33N 33°46' W 118°13'0 0.0
2016-Jun-22 04:33N 33°46' W 118°13'0 0.0
2016-Jun-22 03:33N 33°46' W 118°13'0 0.0
2016-Jun-22 02:33N 33°46' W 118°13'0 0.0
2016-Jun-22 01:33N 33°46' W 118°13'0 0.0
2016-Jun-22 00:33N 33°46' W 118°13'0 0.0
2016-Jun-21 23:33N 33°46' W 118°13'0 0.0
2016-Jun-21 22:33N 33°46' W 118°13'0 0.0
2016-Jun-21 21:33N 33°46' W 118°13'0 0.0
2016-Jun-21 20:33N 33°46' W 118°13'0 0.0
2016-Jun-21 19:33N 33°46' W 118°13'0 0.0
2016-Jun-21 18:33N 33°46' W 118°13'0 0.0
2016-Jun-21 17:33N 33°46' W 118°13'0 0.0
2016-Jun-21 16:33N 33°46' W 118°13'0 0.0
2016-Jun-21 15:33N 33°46' W 118°13'0 0.0
2016-Jun-21 14:33N 33°46' W 118°13'0 0.0
2016-Jun-21 13:33N 33°46' W 118°13'0 0.0
2016-Jun-21 12:33N 33°46' W 118°13'0 0.0
2016-Jun-21 11:33N 33°46' W 118°13'0 0.0
2016-Jun-21 10:33N 33°46' W 118°13'0 0.0
2016-Jun-21 09:33N 33°46' W 118°13'0 0.0
2016-Jun-21 08:33N 33°46' W 118°13'0 0.0
2016-Jun-21 07:33N 33°46' W 118°13'0 0.0
2016-Jun-21 06:33N 33°46' W 118°13'12111209.7
2016-Jun-21 05:33N 29°40' W 094°59'1 1.0
2016-Jun-21 04:34N 29°41' W 094°60'1210871548.9
2016-Jun-21 04:33N 33°46' W 118°13'0 0.0
2016-Jun-21 03:33N 33°46' W 118°13'121041502.4
2016-Jun-21 03:32N 29°41' W 094°60'12101247.2
2016-Jun-21 02:33N 33°46' W 118°13'12109814.8
2016-Jun-21 02:26N 29°41' W 094°60'12101380.3
2016-Jun-21 01:33N 33°46' W 118°13'121038225.9
2016-Jun-21 01:32N 29°41' W 094°60'12101250.1
2016-Jun-21 00:33N 33°46' W 118°13'121018622.9
2016-Jun-21 00:30N 29°41' W 094°60'12101294.6
2016-Jun-20 23:33N 33°46' W 118°13'121023555.4
2016-Jun-20 23:30N 29°41' W 094°60'12101276.4
2016-Jun-20 22:33N 33°46' W 118°13'121013408.4
2016-Jun-20 22:28N 29°41' W 094°60'12101330.2
2016-Jun-20 21:33N 33°46' W 118°13'1210181573.0
2016-Jun-20 21:33N 29°41' W 094°60'0 0.0
2016-Jun-20 20:33N 29°41' W 094°60'12101089437.8
2016-Jun-20 20:33N 33°46' W 118°13'0 0.0
2016-Jun-20 19:33N 33°46' W 118°13'1210871550.2
2016-Jun-20 19:33N 29°41' W 094°60'12101212.2
2016-Jun-20 18:33N 33°46' W 118°13'0 0.0
2016-Jun-20 17:33N 33°46' W 118°13'0 0.0
2016-Jun-20 16:33N 33°46' W 118°13'0 0.0
2016-Jun-20 15:33N 33°46' W 118°13'0 0.0
2016-Jun-20 14:34N 33°46' W 118°13'0 0.0
2016-Jun-20 13:33N 33°46' W 118°13'0 0.0
2016-Jun-20 12:33N 33°46' W 118°13'0 0.0
2016-Jun-20 11:33N 33°46' W 118°13'0 0.0
2016-Jun-20 10:33N 33°46' W 118°13'0 0.0
2016-Jun-20 09:33N 33°46' W 118°13'0 0.0
2016-Jun-20 08:33N 33°46' W 118°13'0 0.0
2016-Jun-20 07:33N 33°46' W 118°13'0 0.0
2016-Jun-20 06:33N 33°46' W 118°13'0 0.0
2016-Jun-20 05:28N 33°46' W 118°13'0 0.0
2016-Jun-20 04:33N 33°46' W 118°13'0 0.0
2016-Jun-20 03:33N 33°46' W 118°13'0 0.0
2016-Jun-20 02:33N 33°46' W 118°13'0 0.0
2016-Jun-20 01:33N 33°46' W 118°13'0 0.0
2016-Jun-20 00:33N 33°46' W 118°13'0 0.0
2016-Jun-19 23:33N 33°46' W 118°13'0 0.0
2016-Jun-19 22:29N 33°46' W 118°13'0 0.0
2016-Jun-19 21:33N 33°46' W 118°13'0 0.0
2016-Jun-19 18:30N 33°46' W 118°13'0 0.0
2016-Jun-19 17:32N 33°46' W 118°13'0 0.0
2016-Jun-19 16:30N 33°46' W 118°13'0 0.0
2016-Jun-19 15:30N 33°46' W 118°13'0 0.0
2016-Jun-19 14:33N 33°46' W 118°13'0 0.0
2016-Jun-19 13:33N 33°46' W 118°13'0 0.0
2016-Jun-19 12:33N 33°46' W 118°13'0 0.0
2016-Jun-19 11:33N 33°46' W 118°13'0 0.0
2016-Jun-19 10:33N 33°46' W 118°13'0 0.0
2016-Jun-19 09:13N 33°46' W 118°13'0 0.0
2016-Jun-19 08:33N 33°46' W 118°13'0 0.0
2016-Jun-19 07:33N 33°46' W 118°13'0 0.0
2016-Jun-19 06:33N 33°46' W 118°13'  

Dump ship's entire track history